sensor_id;sensor_type;location;lat;lon;timestamp;P1;durP1;ratioP1;P2;durP2;ratioP2
67861;SDS011;54665;51.462;6.698;2022-09-29T00:01:36;27.90;;;10.70;;
67861;SDS011;54665;51.462;6.698;2022-09-29T00:04:01;34.70;;;9.95;;
67861;SDS011;54665;51.462;6.698;2022-09-29T00:06:27;31.07;;;10.43;;
67861;SDS011;54665;51.462;6.698;2022-09-29T00:08:52;38.83;;;10.83;;
67861;SDS011;54665;51.462;6.698;2022-09-29T00:11:18;27.90;;;10.53;;
67861;SDS011;54665;51.462;6.698;2022-09-29T00:13:44;32.05;;;10.40;;
67861;SDS011;54665;51.462;6.698;2022-09-29T00:16:10;27.00;;;10.05;;
67861;SDS011;54665;51.462;6.698;2022-09-29T00:18:37;25.73;;;9.88;;
67861;SDS011;54665;51.462;6.698;2022-09-29T00:21:07;28.20;;;9.90;;
67861;SDS011;54665;51.462;6.698;2022-09-29T00:23:35;38.50;;;10.70;;
67861;SDS011;54665;51.462;6.698;2022-09-29T00:26:11;31.60;;;9.93;;
67861;SDS011;54665;51.462;6.698;2022-09-29T00:28:39;29.42;;;10.02;;
67861;SDS011;54665;51.462;6.698;2022-09-29T00:31:07;39.03;;;11.10;;
67861;SDS011;54665;51.462;6.698;2022-09-29T00:33:35;35.50;;;10.70;;
67861;SDS011;54665;51.462;6.698;2022-09-29T00:36:05;34.25;;;10.73;;
67861;SDS011;54665;51.462;6.698;2022-09-29T00:38:32;43.97;;;11.98;;
67861;SDS011;54665;51.462;6.698;2022-09-29T00:40:58;42.28;;;11.73;;
67861;SDS011;54665;51.462;6.698;2022-09-29T00:43:45;39.67;;;12.40;;
67861;SDS011;54665;51.462;6.698;2022-09-29T00:46:12;34.45;;;11.30;;
67861;SDS011;54665;51.462;6.698;2022-09-29T00:48:38;37.50;;;11.38;;
67861;SDS011;54665;51.462;6.698;2022-09-29T00:51:05;30.92;;;11.55;;
67861;SDS011;54665;51.462;6.698;2022-09-29T00:53:31;36.93;;;12.03;;
67861;SDS011;54665;51.462;6.698;2022-09-29T00:58:36;38.92;;;11.82;;
67861;SDS011;54665;51.462;6.698;2022-09-29T01:01:08;37.63;;;12.18;;
67861;SDS011;54665;51.462;6.698;2022-09-29T01:03:39;37.90;;;12.38;;
67861;SDS011;54665;51.462;6.698;2022-09-29T01:06:10;43.25;;;12.45;;
67861;SDS011;54665;51.462;6.698;2022-09-29T01:08:48;42.53;;;12.00;;
67861;SDS011;54665;51.462;6.698;2022-09-29T01:11:22;35.80;;;11.88;;
67861;SDS011;54665;51.462;6.698;2022-09-29T01:13:48;36.80;;;12.18;;
67861;SDS011;54665;51.462;6.698;2022-09-29T01:16:14;35.38;;;11.98;;
67861;SDS011;54665;51.462;6.698;2022-09-29T01:18:40;42.30;;;12.70;;
67861;SDS011;54665;51.462;6.698;2022-09-29T01:21:23;97.47;;;13.77;;
67861;SDS011;54665;51.462;6.698;2022-09-29T01:29:36;36.53;;;12.03;;
67861;SDS011;54665;51.462;6.698;2022-09-29T01:38:07;33.33;;;11.65;;
67861;SDS011;54665;51.462;6.698;2022-09-29T01:43:31;35.93;;;12.37;;
67861;SDS011;54665;51.462;6.698;2022-09-29T01:46:37;38.80;;;12.15;;
67861;SDS011;54665;51.462;6.698;2022-09-29T01:48:57;35.40;;;11.80;;
67861;SDS011;54665;51.462;6.698;2022-09-29T01:51:29;40.78;;;11.93;;
67861;SDS011;54665;51.462;6.698;2022-09-29T01:54:03;35.70;;;12.05;;
67861;SDS011;54665;51.462;6.698;2022-09-29T01:56:36;36.17;;;12.70;;
67861;SDS011;54665;51.462;6.698;2022-09-29T02:02:05;38.78;;;11.98;;
67861;SDS011;54665;51.462;6.698;2022-09-29T02:04:43;37.08;;;11.63;;
67861;SDS011;54665;51.462;6.698;2022-09-29T02:07:15;31.98;;;11.60;;
67861;SDS011;54665;51.462;6.698;2022-09-29T02:09:48;29.67;;;10.70;;
67861;SDS011;54665;51.462;6.698;2022-09-29T02:12:21;42.45;;;12.13;;
67861;SDS011;54665;51.462;6.698;2022-09-29T02:14:50;37.05;;;12.55;;
67861;SDS011;54665;51.462;6.698;2022-09-29T02:17:19;35.92;;;12.38;;
67861;SDS011;54665;51.462;6.698;2022-09-29T02:19:54;37.25;;;12.30;;
67861;SDS011;54665;51.462;6.698;2022-09-29T02:22:19;33.33;;;11.57;;
67861;SDS011;54665;51.462;6.698;2022-09-29T02:24:45;34.55;;;12.15;;
67861;SDS011;54665;51.462;6.698;2022-09-29T02:27:11;29.53;;;11.43;;
67861;SDS011;54665;51.462;6.698;2022-09-29T02:29:37;32.92;;;11.70;;
67861;SDS011;54665;51.462;6.698;2022-09-29T02:32:03;36.83;;;12.43;;
67861;SDS011;54665;51.462;6.698;2022-09-29T02:34:31;36.05;;;12.35;;
67861;SDS011;54665;51.462;6.698;2022-09-29T02:37:13;30.90;;;11.25;;
67861;SDS011;54665;51.462;6.698;2022-09-29T02:58:48;37.83;;;12.15;;
67861;SDS011;54665;51.462;6.698;2022-09-29T03:01:23;30.35;;;10.48;;
67861;SDS011;54665;51.462;6.698;2022-09-29T03:03:49;31.87;;;11.37;;
67861;SDS011;54665;51.462;6.698;2022-09-29T03:06:14;31.30;;;11.30;;
67861;SDS011;54665;51.462;6.698;2022-09-29T03:08:42;34.60;;;12.05;;
67861;SDS011;54665;51.462;6.698;2022-09-29T03:11:08;33.27;;;12.00;;
67861;SDS011;54665;51.462;6.698;2022-09-29T03:13:33;29.57;;;10.77;;
67861;SDS011;54665;51.462;6.698;2022-09-29T03:15:58;31.13;;;11.25;;
67861;SDS011;54665;51.462;6.698;2022-09-29T03:18:24;33.63;;;11.23;;
67861;SDS011;54665;51.462;6.698;2022-09-29T03:20:49;37.70;;;12.20;;
67861;SDS011;54665;51.462;6.698;2022-09-29T03:23:18;34.90;;;12.38;;
67861;SDS011;54665;51.462;6.698;2022-09-29T03:25:43;30.57;;;11.37;;
67861;SDS011;54665;51.462;6.698;2022-09-29T03:28:09;38.10;;;12.13;;
67861;SDS011;54665;51.462;6.698;2022-09-29T03:30:34;35.00;;;12.27;;
67861;SDS011;54665;51.462;6.698;2022-09-29T03:32:59;32.45;;;11.48;;
67861;SDS011;54665;51.462;6.698;2022-09-29T03:35:25;44.53;;;12.23;;
67861;SDS011;54665;51.462;6.698;2022-09-29T03:37:50;33.50;;;11.77;;
67861;SDS011;54665;51.462;6.698;2022-09-29T03:40:15;51.57;;;12.13;;
67861;SDS011;54665;51.462;6.698;2022-09-29T03:42:41;36.80;;;12.17;;
67861;SDS011;54665;51.462;6.698;2022-09-29T03:45:10;34.08;;;12.02;;
67861;SDS011;54665;51.462;6.698;2022-09-29T03:47:35;38.10;;;11.73;;
67861;SDS011;54665;51.462;6.698;2022-09-29T03:50:00;35.30;;;11.90;;
67861;SDS011;54665;51.462;6.698;2022-09-29T03:52:26;32.23;;;12.10;;
67861;SDS011;54665;51.462;6.698;2022-09-29T03:54:51;37.10;;;12.23;;
67861;SDS011;54665;51.462;6.698;2022-09-29T03:57:17;34.73;;;11.33;;
67861;SDS011;54665;51.462;6.698;2022-09-29T03:59:42;36.63;;;12.40;;
67861;SDS011;54665;51.462;6.698;2022-09-29T04:02:07;37.28;;;11.82;;
67861;SDS011;54665;51.462;6.698;2022-09-29T04:04:33;39.23;;;12.80;;
67861;SDS011;54665;51.462;6.698;2022-09-29T04:06:58;32.57;;;12.00;;
67861;SDS011;54665;51.462;6.698;2022-09-29T04:09:23;53.43;;;12.07;;
67861;SDS011;54665;51.462;6.698;2022-09-29T04:11:49;33.13;;;11.17;;
67861;SDS011;54665;51.462;6.698;2022-09-29T04:14:14;30.63;;;10.70;;
67861;SDS011;54665;51.462;6.698;2022-09-29T04:16:39;27.77;;;10.50;;
67861;SDS011;54665;51.462;6.698;2022-09-29T04:19:05;33.37;;;11.17;;
67861;SDS011;54665;51.462;6.698;2022-09-29T04:21:36;28.48;;;10.77;;
67861;SDS011;54665;51.462;6.698;2022-09-29T04:24:01;31.73;;;11.30;;
67861;SDS011;54665;51.462;6.698;2022-09-29T04:26:27;38.70;;;11.55;;
67861;SDS011;54665;51.462;6.698;2022-09-29T04:28:55;38.33;;;11.83;;
67861;SDS011;54665;51.462;6.698;2022-09-29T04:31:24;31.17;;;11.20;;
67861;SDS011;54665;51.462;6.698;2022-09-29T04:33:49;35.07;;;11.77;;
67861;SDS011;54665;51.462;6.698;2022-09-29T04:36:15;33.78;;;11.88;;
67861;SDS011;54665;51.462;6.698;2022-09-29T04:38:44;33.78;;;12.13;;
67861;SDS011;54665;51.462;6.698;2022-09-29T04:41:10;32.23;;;11.80;;
67861;SDS011;54665;51.462;6.698;2022-09-29T04:43:35;33.03;;;12.50;;
67861;SDS011;54665;51.462;6.698;2022-09-29T04:46:04;33.90;;;11.63;;
67861;SDS011;54665;51.462;6.698;2022-09-29T04:48:31;30.42;;;11.57;;
67861;SDS011;54665;51.462;6.698;2022-09-29T04:50:57;97.10;;;14.07;;
67861;SDS011;54665;51.462;6.698;2022-09-29T04:53:22;48.20;;;12.70;;
67861;SDS011;54665;51.462;6.698;2022-09-29T04:55:47;38.28;;;11.77;;
67861;SDS011;54665;51.462;6.698;2022-09-29T04:58:13;39.37;;;12.57;;
67861;SDS011;54665;51.462;6.698;2022-09-29T05:00:39;34.55;;;11.85;;
67861;SDS011;54665;51.462;6.698;2022-09-29T05:03:04;35.83;;;11.90;;
67861;SDS011;54665;51.462;6.698;2022-09-29T05:05:30;29.40;;;11.40;;
67861;SDS011;54665;51.462;6.698;2022-09-29T05:07:56;38.47;;;11.88;;
67861;SDS011;54665;51.462;6.698;2022-09-29T05:10:23;33.35;;;11.55;;
67861;SDS011;54665;51.462;6.698;2022-09-29T05:12:52;39.23;;;11.70;;
67861;SDS011;54665;51.462;6.698;2022-09-29T05:15:17;35.38;;;11.82;;
67861;SDS011;54665;51.462;6.698;2022-09-29T05:17:43;36.40;;;11.77;;
67861;SDS011;54665;51.462;6.698;2022-09-29T05:20:09;30.33;;;11.00;;
67861;SDS011;54665;51.462;6.698;2022-09-29T05:22:35;26.37;;;10.47;;
67861;SDS011;54665;51.462;6.698;2022-09-29T05:25:00;35.70;;;11.68;;
67861;SDS011;54665;51.462;6.698;2022-09-29T05:27:26;30.57;;;11.23;;
67861;SDS011;54665;51.462;6.698;2022-09-29T05:29:51;33.00;;;11.47;;
67861;SDS011;54665;51.462;6.698;2022-09-29T05:32:16;32.13;;;11.87;;
67861;SDS011;54665;51.462;6.698;2022-09-29T05:34:42;38.90;;;12.03;;
67861;SDS011;54665;51.462;6.698;2022-09-29T05:37:07;32.85;;;11.35;;
67861;SDS011;54665;51.462;6.698;2022-09-29T05:39:34;33.27;;;11.00;;
67861;SDS011;54665;51.462;6.698;2022-09-29T05:42:01;33.90;;;11.25;;
67861;SDS011;54665;51.462;6.698;2022-09-29T05:44:30;40.45;;;11.68;;
67861;SDS011;54665;51.462;6.698;2022-09-29T05:46:57;34.05;;;12.02;;
67861;SDS011;54665;51.462;6.698;2022-09-29T05:49:23;37.10;;;11.37;;
67861;SDS011;54665;51.462;6.698;2022-09-29T05:51:48;28.50;;;10.33;;
67861;SDS011;54665;51.462;6.698;2022-09-29T05:54:14;34.60;;;13.90;;
67861;SDS011;54665;51.462;6.698;2022-09-29T05:56:39;33.70;;;13.00;;
67861;SDS011;54665;51.462;6.698;2022-09-29T05:59:04;30.57;;;11.20;;
67861;SDS011;54665;51.462;6.698;2022-09-29T06:01:30;31.10;;;11.23;;
67861;SDS011;54665;51.462;6.698;2022-09-29T06:03:56;30.10;;;11.10;;
67861;SDS011;54665;51.462;6.698;2022-09-29T06:06:23;30.23;;;11.33;;
67861;SDS011;54665;51.462;6.698;2022-09-29T06:08:50;30.70;;;11.43;;
67861;SDS011;54665;51.462;6.698;2022-09-29T06:11:17;35.13;;;11.32;;
67861;SDS011;54665;51.462;6.698;2022-09-29T06:13:53;33.83;;;11.87;;
67861;SDS011;54665;51.462;6.698;2022-09-29T06:16:20;32.50;;;11.98;;
67861;SDS011;54665;51.462;6.698;2022-09-29T06:18:48;33.33;;;11.63;;
67861;SDS011;54665;51.462;6.698;2022-09-29T06:21:23;35.85;;;12.23;;
67861;SDS011;54665;51.462;6.698;2022-09-29T06:23:50;33.43;;;12.40;;
67861;SDS011;54665;51.462;6.698;2022-09-29T06:26:18;35.00;;;12.63;;
67861;SDS011;54665;51.462;6.698;2022-09-29T06:28:45;35.97;;;13.27;;
67861;SDS011;54665;51.462;6.698;2022-09-29T06:31:15;44.13;;;14.60;;
67861;SDS011;54665;51.462;6.698;2022-09-29T06:33:42;41.70;;;14.40;;
67861;SDS011;54665;51.462;6.698;2022-09-29T06:36:18;37.30;;;14.60;;
67861;SDS011;54665;51.462;6.698;2022-09-29T06:39:45;40.40;;;14.23;;
67861;SDS011;54665;51.462;6.698;2022-09-29T06:42:10;41.53;;;15.00;;
67861;SDS011;54665;51.462;6.698;2022-09-29T06:44:36;38.83;;;14.77;;
67861;SDS011;54665;51.462;6.698;2022-09-29T06:47:02;38.50;;;15.03;;
67861;SDS011;54665;51.462;6.698;2022-09-29T06:49:27;38.07;;;15.37;;
67861;SDS011;54665;51.462;6.698;2022-09-29T06:51:52;40.03;;;15.93;;
67861;SDS011;54665;51.462;6.698;2022-09-29T06:54:19;41.22;;;15.93;;
67861;SDS011;54665;51.462;6.698;2022-09-29T06:56:50;45.55;;;16.67;;
67861;SDS011;54665;51.462;6.698;2022-09-29T06:59:17;42.60;;;16.27;;
67861;SDS011;54665;51.462;6.698;2022-09-29T07:01:43;45.30;;;16.30;;
67861;SDS011;54665;51.462;6.698;2022-09-29T07:04:14;45.80;;;17.40;;
67861;SDS011;54665;51.462;6.698;2022-09-29T07:06:39;45.33;;;16.83;;
67861;SDS011;54665;51.462;6.698;2022-09-29T07:09:05;48.03;;;17.20;;
67861;SDS011;54665;51.462;6.698;2022-09-29T07:11:30;40.53;;;17.13;;
67861;SDS011;54665;51.462;6.698;2022-09-29T07:13:56;42.80;;;16.37;;
67861;SDS011;54665;51.462;6.698;2022-09-29T07:16:21;45.63;;;16.77;;
67861;SDS011;54665;51.462;6.698;2022-09-29T07:18:47;47.85;;;16.98;;
67861;SDS011;54665;51.462;6.698;2022-09-29T07:21:13;45.97;;;17.20;;
67861;SDS011;54665;51.462;6.698;2022-09-29T07:23:46;49.35;;;19.40;;
67861;SDS011;54665;51.462;6.698;2022-09-29T07:26:12;45.72;;;19.35;;
67861;SDS011;54665;51.462;6.698;2022-09-29T07:28:39;49.22;;;18.60;;
67861;SDS011;54665;51.462;6.698;2022-09-29T07:31:05;37.00;;;16.80;;
67861;SDS011;54665;51.462;6.698;2022-09-29T07:33:33;32.72;;;15.02;;
67861;SDS011;54665;51.462;6.698;2022-09-29T07:35:58;26.33;;;13.90;;
67861;SDS011;54665;51.462;6.698;2022-09-29T07:38:25;25.73;;;12.20;;
67861;SDS011;54665;51.462;6.698;2022-09-29T07:40:51;23.35;;;11.20;;
67861;SDS011;54665;51.462;6.698;2022-09-29T07:43:16;21.73;;;10.93;;
67861;SDS011;54665;51.462;6.698;2022-09-29T07:45:46;21.13;;;10.80;;
67861;SDS011;54665;51.462;6.698;2022-09-29T07:48:14;21.45;;;10.57;;
67861;SDS011;54665;51.462;6.698;2022-09-29T07:50:40;22.63;;;11.90;;
67861;SDS011;54665;51.462;6.698;2022-09-29T07:53:06;23.45;;;11.65;;
67861;SDS011;54665;51.462;6.698;2022-09-29T07:55:31;19.87;;;10.53;;
67861;SDS011;54665;51.462;6.698;2022-09-29T07:57:57;26.13;;;11.60;;
67861;SDS011;54665;51.462;6.698;2022-09-29T08:00:22;24.03;;;11.00;;
67861;SDS011;54665;51.462;6.698;2022-09-29T08:02:48;19.97;;;9.93;;
67861;SDS011;54665;51.462;6.698;2022-09-29T08:05:13;16.97;;;9.87;;
67861;SDS011;54665;51.462;6.698;2022-09-29T08:07:39;17.73;;;9.35;;
67861;SDS011;54665;51.462;6.698;2022-09-29T08:10:04;14.30;;;8.30;;
67861;SDS011;54665;51.462;6.698;2022-09-29T08:12:30;14.57;;;8.23;;
67861;SDS011;54665;51.462;6.698;2022-09-29T08:14:56;16.93;;;8.07;;
67861;SDS011;54665;51.462;6.698;2022-09-29T08:17:21;14.90;;;8.17;;
67861;SDS011;54665;51.462;6.698;2022-09-29T08:19:47;13.17;;;7.70;;
67861;SDS011;54665;51.462;6.698;2022-09-29T08:22:12;14.33;;;8.33;;
67861;SDS011;54665;51.462;6.698;2022-09-29T08:24:37;13.00;;;7.77;;
67861;SDS011;54665;51.462;6.698;2022-09-29T08:27:04;12.52;;;7.70;;
67861;SDS011;54665;51.462;6.698;2022-09-29T08:29:31;13.27;;;7.82;;
67861;SDS011;54665;51.462;6.698;2022-09-29T08:31:57;14.03;;;8.07;;
67861;SDS011;54665;51.462;6.698;2022-09-29T08:34:22;13.20;;;7.93;;
67861;SDS011;54665;51.462;6.698;2022-09-29T08:36:48;13.50;;;8.20;;
67861;SDS011;54665;51.462;6.698;2022-09-29T08:39:13;13.27;;;8.13;;
67861;SDS011;54665;51.462;6.698;2022-09-29T08:46:43;13.80;;;8.05;;
67861;SDS011;54665;51.462;6.698;2022-09-29T08:49:17;14.63;;;8.30;;
67861;SDS011;54665;51.462;6.698;2022-09-29T08:51:47;12.40;;;8.10;;
67861;SDS011;54665;51.462;6.698;2022-09-29T08:56:53;17.08;;;7.80;;
67861;SDS011;54665;51.462;6.698;2022-09-29T08:59:19;13.70;;;8.10;;
67861;SDS011;54665;51.462;6.698;2022-09-29T09:04:44;14.10;;;7.90;;
67861;SDS011;54665;51.462;6.698;2022-09-29T09:12:35;14.75;;;8.75;;
67861;SDS011;54665;51.462;6.698;2022-09-29T09:15:35;16.65;;;9.20;;
67861;SDS011;54665;51.462;6.698;2022-09-29T09:21:17;17.10;;;9.50;;
67861;SDS011;54665;51.462;6.698;2022-09-29T09:24:16;17.60;;;9.93;;
67861;SDS011;54665;51.462;6.698;2022-09-29T09:26:49;21.20;;;10.52;;
67861;SDS011;54665;51.462;6.698;2022-09-29T09:31:56;19.95;;;10.32;;
67861;SDS011;54665;51.462;6.698;2022-09-29T09:34:27;20.30;;;10.88;;
67861;SDS011;54665;51.462;6.698;2022-09-29T09:36:59;21.38;;;10.43;;
67861;SDS011;54665;51.462;6.698;2022-09-29T09:39:36;20.07;;;9.63;;
67861;SDS011;54665;51.462;6.698;2022-09-29T09:42:17;18.67;;;9.77;;
67861;SDS011;54665;51.462;6.698;2022-09-29T09:45:00;18.13;;;9.98;;
67861;SDS011;54665;51.462;6.698;2022-09-29T09:47:58;17.23;;;9.30;;
67861;SDS011;54665;51.462;6.698;2022-09-29T09:50:38;17.58;;;8.82;;
67861;SDS011;54665;51.462;6.698;2022-09-29T09:53:11;18.63;;;8.63;;
67861;SDS011;54665;51.462;6.698;2022-09-29T09:55:44;15.25;;;9.20;;
67861;SDS011;54665;51.462;6.698;2022-09-29T10:01:07;19.85;;;9.68;;
67861;SDS011;54665;51.462;6.698;2022-09-29T10:03:33;18.35;;;9.00;;
67861;SDS011;54665;51.462;6.698;2022-09-29T10:06:00;17.57;;;9.10;;
67861;SDS011;54665;51.462;6.698;2022-09-29T10:08:27;15.63;;;8.57;;
67861;SDS011;54665;51.462;6.698;2022-09-29T10:10:55;16.13;;;7.65;;
67861;SDS011;54665;51.462;6.698;2022-09-29T10:13:23;9.90;;;5.70;;
67861;SDS011;54665;51.462;6.698;2022-09-29T10:16:09;11.30;;;5.70;;
67861;SDS011;54665;51.462;6.698;2022-09-29T10:18:39;11.95;;;5.03;;
67861;SDS011;54665;51.462;6.698;2022-09-29T10:24:00;11.50;;;4.90;;
67861;SDS011;54665;51.462;6.698;2022-09-29T10:26:27;9.60;;;5.13;;
67861;SDS011;54665;51.462;6.698;2022-09-29T10:28:59;11.38;;;5.07;;
67861;SDS011;54665;51.462;6.698;2022-09-29T10:31:28;8.45;;;4.60;;
67861;SDS011;54665;51.462;6.698;2022-09-29T10:34:12;8.57;;;4.60;;
67861;SDS011;54665;51.462;6.698;2022-09-29T10:39:31;5.73;;;3.57;;
67861;SDS011;54665;51.462;6.698;2022-09-29T10:42:14;8.38;;;3.47;;
67861;SDS011;54665;51.462;6.698;2022-09-29T10:44:40;6.18;;;3.70;;
67861;SDS011;54665;51.462;6.698;2022-09-29T10:47:06;6.10;;;3.07;;
67861;SDS011;54665;51.462;6.698;2022-09-29T10:49:38;5.50;;;2.58;;
67861;SDS011;54665;51.462;6.698;2022-09-29T10:52:05;7.50;;;2.90;;
67861;SDS011;54665;51.462;6.698;2022-09-29T10:54:51;5.63;;;2.80;;
67861;SDS011;54665;51.462;6.698;2022-09-29T10:57:19;3.53;;;2.30;;
67861;SDS011;54665;51.462;6.698;2022-09-29T10:59:50;5.72;;;2.75;;
67861;SDS011;54665;51.462;6.698;2022-09-29T11:02:31;5.65;;;2.67;;
67861;SDS011;54665;51.462;6.698;2022-09-29T11:05:03;4.63;;;2.73;;
67861;SDS011;54665;51.462;6.698;2022-09-29T11:07:43;5.75;;;2.97;;
67861;SDS011;54665;51.462;6.698;2022-09-29T11:10:53;6.85;;;3.20;;
67861;SDS011;54665;51.462;6.698;2022-09-29T11:15:49;4.75;;;2.30;;
67861;SDS011;54665;51.462;6.698;2022-09-29T11:18:18;3.60;;;1.90;;
67861;SDS011;54665;51.462;6.698;2022-09-29T11:20:47;4.40;;;2.30;;
67861;SDS011;54665;51.462;6.698;2022-09-29T11:26:17;5.83;;;2.70;;
67861;SDS011;54665;51.462;6.698;2022-09-29T11:31:51;5.55;;;3.00;;
67861;SDS011;54665;51.462;6.698;2022-09-29T11:34:42;6.38;;;3.20;;
67861;SDS011;54665;51.462;6.698;2022-09-29T11:42:57;5.50;;;2.58;;
67861;SDS011;54665;51.462;6.698;2022-09-29T11:45:44;3.75;;;2.20;;
67861;SDS011;54665;51.462;6.698;2022-09-29T11:51:08;6.03;;;2.25;;
67861;SDS011;54665;51.462;6.698;2022-09-29T11:56:23;5.00;;;2.03;;
67861;SDS011;54665;51.462;6.698;2022-09-29T12:07:16;4.30;;;2.03;;
67861;SDS011;54665;51.462;6.698;2022-09-29T12:10:01;3.80;;;2.20;;
67861;SDS011;54665;51.462;6.698;2022-09-29T12:12:45;5.20;;;2.03;;
67861;SDS011;54665;51.462;6.698;2022-09-29T12:18:27;2.95;;;1.88;;
67861;SDS011;54665;51.462;6.698;2022-09-29T12:20:59;4.73;;;1.67;;
67861;SDS011;54665;51.462;6.698;2022-09-29T12:23:26;2.72;;;1.38;;
67861;SDS011;54665;51.462;6.698;2022-09-29T12:28:49;3.55;;;1.67;;
67861;SDS011;54665;51.462;6.698;2022-09-29T12:33:58;2.63;;;1.60;;
67861;SDS011;54665;51.462;6.698;2022-09-29T12:39:23;3.75;;;1.70;;
67861;SDS011;54665;51.462;6.698;2022-09-29T12:41:52;3.33;;;1.90;;
67861;SDS011;54665;51.462;6.698;2022-09-29T12:44:28;4.47;;;2.20;;
67861;SDS011;54665;51.462;6.698;2022-09-29T12:47:27;2.27;;;1.63;;
67861;SDS011;54665;51.462;6.698;2022-09-29T12:50:02;3.20;;;1.63;;
67861;SDS011;54665;51.462;6.698;2022-09-29T12:52:37;2.42;;;1.40;;
67861;SDS011;54665;51.462;6.698;2022-09-29T12:55:14;3.03;;;1.60;;
67861;SDS011;54665;51.462;6.698;2022-09-29T12:57:44;3.83;;;1.30;;
67861;SDS011;54665;51.462;6.698;2022-09-29T13:00:12;2.40;;;1.50;;
67861;SDS011;54665;51.462;6.698;2022-09-29T13:05:46;2.83;;;1.30;;
67861;SDS011;54665;51.462;6.698;2022-09-29T13:08:40;2.55;;;1.30;;
67861;SDS011;54665;51.462;6.698;2022-09-29T13:14:23;2.83;;;1.47;;
67861;SDS011;54665;51.462;6.698;2022-09-29T13:22:58;4.70;;;2.05;;
67861;SDS011;54665;51.462;6.698;2022-09-29T13:28:28;4.43;;;1.50;;
67861;SDS011;54665;51.462;6.698;2022-09-29T13:31:02;3.50;;;1.27;;
67861;SDS011;54665;51.462;6.698;2022-09-29T13:33:32;2.20;;;1.30;;
67861;SDS011;54665;51.462;6.698;2022-09-29T13:35:58;2.78;;;1.63;;
67861;SDS011;54665;51.462;6.698;2022-09-29T13:38:24;4.00;;;1.60;;
67861;SDS011;54665;51.462;6.698;2022-09-29T13:51:41;4.53;;;1.70;;
67861;SDS011;54665;51.462;6.698;2022-09-29T13:54:34;4.65;;;1.50;;
67861;SDS011;54665;51.462;6.698;2022-09-29T13:59:46;2.17;;;1.40;;
67861;SDS011;54665;51.462;6.698;2022-09-29T14:02:39;2.80;;;1.60;;
67861;SDS011;54665;51.462;6.698;2022-09-29T14:10:30;3.67;;;1.80;;
67861;SDS011;54665;51.462;6.698;2022-09-29T14:13:06;2.90;;;1.70;;
67861;SDS011;54665;51.462;6.698;2022-09-29T14:15:39;3.23;;;1.60;;
67861;SDS011;54665;51.462;6.698;2022-09-29T14:29:57;4.07;;;1.70;;
67861;SDS011;54665;51.462;6.698;2022-09-29T14:32:54;3.25;;;2.05;;
67861;SDS011;54665;51.462;6.698;2022-09-29T14:35:34;3.97;;;1.80;;
67861;SDS011;54665;51.462;6.698;2022-09-29T14:38:07;3.10;;;1.90;;
67861;SDS011;54665;51.462;6.698;2022-09-29T14:40:38;3.58;;;2.00;;
67861;SDS011;54665;51.462;6.698;2022-09-29T14:43:16;3.73;;;1.90;;
67861;SDS011;54665;51.462;6.698;2022-09-29T14:46:04;4.13;;;2.00;;
67861;SDS011;54665;51.462;6.698;2022-09-29T14:58:05;3.97;;;1.70;;
67861;SDS011;54665;51.462;6.698;2022-09-29T15:04:14;3.13;;;1.30;;
67861;SDS011;54665;51.462;6.698;2022-09-29T15:09:03;1.65;;;1.00;;
67861;SDS011;54665;51.462;6.698;2022-09-29T15:11:42;2.63;;;1.10;;
67861;SDS011;54665;51.462;6.698;2022-09-29T15:14:27;2.63;;;1.10;;
67861;SDS011;54665;51.462;6.698;2022-09-29T15:25:09;2.88;;;1.40;;
67861;SDS011;54665;51.462;6.698;2022-09-29T15:27:46;2.55;;;1.20;;
67861;SDS011;54665;51.462;6.698;2022-09-29T15:30:15;2.55;;;1.30;;
67861;SDS011;54665;51.462;6.698;2022-09-29T15:32:43;2.60;;;1.33;;
67861;SDS011;54665;51.462;6.698;2022-09-29T15:35:10;2.75;;;1.23;;
67861;SDS011;54665;51.462;6.698;2022-09-29T15:40:18;2.83;;;1.20;;
67861;SDS011;54665;51.462;6.698;2022-09-29T15:42:46;3.42;;;1.05;;
67861;SDS011;54665;51.462;6.698;2022-09-29T15:45:16;2.93;;;1.20;;
67861;SDS011;54665;51.462;6.698;2022-09-29T15:47:46;3.85;;;1.30;;
67861;SDS011;54665;51.462;6.698;2022-09-29T15:52:44;3.25;;;1.20;;
67861;SDS011;54665;51.462;6.698;2022-09-29T15:55:11;1.95;;;1.00;;
67861;SDS011;54665;51.462;6.698;2022-09-29T15:57:44;3.00;;;1.20;;
67861;SDS011;54665;51.462;6.698;2022-09-29T16:05:14;4.33;;;1.10;;
67861;SDS011;54665;51.462;6.698;2022-09-29T16:07:53;2.65;;;1.30;;
67861;SDS011;54665;51.462;6.698;2022-09-29T16:10:27;3.40;;;1.10;;
67861;SDS011;54665;51.462;6.698;2022-09-29T16:13:18;3.75;;;1.40;;
67861;SDS011;54665;51.462;6.698;2022-09-29T16:15:46;6.47;;;1.30;;
67861;SDS011;54665;51.462;6.698;2022-09-29T16:18:27;3.10;;;1.48;;
67861;SDS011;54665;51.462;6.698;2022-09-29T16:20:55;4.25;;;1.70;;
67861;SDS011;54665;51.462;6.698;2022-09-29T16:23:27;3.90;;;1.60;;
67861;SDS011;54665;51.462;6.698;2022-09-29T16:28:30;15.07;;;2.00;;
67861;SDS011;54665;51.462;6.698;2022-09-29T16:31:01;12.68;;;2.22;;
67861;SDS011;54665;51.462;6.698;2022-09-29T16:33:28;6.65;;;2.20;;
67861;SDS011;54665;51.462;6.698;2022-09-29T16:35:54;5.20;;;2.17;;
67861;SDS011;54665;51.462;6.698;2022-09-29T16:38:29;6.80;;;2.67;;
67861;SDS011;54665;51.462;6.698;2022-09-29T16:40:58;10.23;;;2.70;;
67861;SDS011;54665;51.462;6.698;2022-09-29T16:43:30;11.23;;;3.20;;
67861;SDS011;54665;51.462;6.698;2022-09-29T16:45:56;8.13;;;3.25;;
67861;SDS011;54665;51.462;6.698;2022-09-29T16:48:24;9.03;;;3.13;;
67861;SDS011;54665;51.462;6.698;2022-09-29T16:50:56;18.23;;;4.68;;
67861;SDS011;54665;51.462;6.698;2022-09-29T16:53:28;8.27;;;3.95;;
67861;SDS011;54665;51.462;6.698;2022-09-29T16:55:57;9.93;;;3.58;;
67861;SDS011;54665;51.462;6.698;2022-09-29T16:58:24;8.13;;;3.10;;
67861;SDS011;54665;51.462;6.698;2022-09-29T17:00:51;9.10;;;3.40;;
67861;SDS011;54665;51.462;6.698;2022-09-29T17:03:17;11.05;;;3.33;;
67861;SDS011;54665;51.462;6.698;2022-09-29T17:05:42;5.43;;;2.83;;
67861;SDS011;54665;51.462;6.698;2022-09-29T17:08:15;6.00;;;3.00;;
67861;SDS011;54665;51.462;6.698;2022-09-29T17:10:45;5.88;;;3.20;;
67861;SDS011;54665;51.462;6.698;2022-09-29T17:13:10;6.13;;;3.60;;
67861;SDS011;54665;51.462;6.698;2022-09-29T17:15:41;7.00;;;3.80;;
67861;SDS011;54665;51.462;6.698;2022-09-29T17:18:09;9.02;;;3.45;;
67861;SDS011;54665;51.462;6.698;2022-09-29T17:20:36;12.97;;;4.10;;
67861;SDS011;54665;51.462;6.698;2022-09-29T17:23:01;8.50;;;3.85;;
67861;SDS011;54665;51.462;6.698;2022-09-29T17:25:28;6.95;;;3.72;;
67861;SDS011;54665;51.462;6.698;2022-09-29T17:27:55;8.70;;;4.10;;
67861;SDS011;54665;51.462;6.698;2022-09-29T17:30:36;9.75;;;4.47;;
67861;SDS011;54665;51.462;6.698;2022-09-29T17:33:03;9.43;;;4.40;;
67861;SDS011;54665;51.462;6.698;2022-09-29T17:35:29;8.00;;;4.50;;
67861;SDS011;54665;51.462;6.698;2022-09-29T17:37:58;7.53;;;4.80;;
67861;SDS011;54665;51.462;6.698;2022-09-29T17:43:12;16.90;;;5.63;;
67861;SDS011;54665;51.462;6.698;2022-09-29T17:45:37;15.90;;;5.90;;
67861;SDS011;54665;51.462;6.698;2022-09-29T17:48:07;11.68;;;5.82;;
67861;SDS011;54665;51.462;6.698;2022-09-29T17:50:49;10.35;;;5.80;;
67861;SDS011;54665;51.462;6.698;2022-09-29T17:53:15;13.02;;;6.03;;
67861;SDS011;54665;51.462;6.698;2022-09-29T17:55:42;12.88;;;6.35;;
67861;SDS011;54665;51.462;6.698;2022-09-29T17:58:10;14.37;;;6.70;;
67861;SDS011;54665;51.462;6.698;2022-09-29T18:00:37;14.95;;;6.90;;
67861;SDS011;54665;51.462;6.698;2022-09-29T18:03:07;18.02;;;8.63;;
67861;SDS011;54665;51.462;6.698;2022-09-29T18:05:35;17.02;;;8.15;;